sensor_id;sensor_type;location;lat;lon;timestamp;pressure;altitude;pressure_sealevel;temperature;humidity
79203;BME280;68630;42.748;23.278;2024-02-04T00:00:51;95924.06;;;6.13;59.63
79203;BME280;68630;42.748;23.278;2024-02-04T00:03:26;95929.35;;;6.13;59.82
79203;BME280;68630;42.748;23.278;2024-02-04T00:06:04;95932.39;;;6.00;60.07
79203;BME280;68630;42.748;23.278;2024-02-04T00:08:32;95931.20;;;5.90;60.10
79203;BME280;68630;42.748;23.278;2024-02-04T00:11:06;95939.05;;;5.54;61.80
79203;BME280;68630;42.748;23.278;2024-02-04T00:14:07;95922.87;;;5.81;61.05
79203;BME280;68630;42.748;23.278;2024-02-04T00:16:58;95928.36;;;5.93;61.27
79203;BME280;68630;42.748;23.278;2024-02-04T00:19:31;95927.01;;;6.09;60.70
79203;BME280;68630;42.748;23.278;2024-02-04T00:22:05;95928.42;;;6.14;60.80
79203;BME280;68630;42.748;23.278;2024-02-04T00:24:36;95925.51;;;6.12;60.92
79203;BME280;68630;42.748;23.278;2024-02-04T00:27:17;95922.77;;;6.21;60.72
79203;BME280;68630;42.748;23.278;2024-02-04T00:29:54;95925.23;;;6.31;60.81
79203;BME280;68630;42.748;23.278;2024-02-04T00:32:27;95927.38;;;6.38;61.07
79203;BME280;68630;42.748;23.278;2024-02-04T00:35:07;95926.83;;;6.48;60.87
79203;BME280;68630;42.748;23.278;2024-02-04T00:37:42;95926.70;;;6.49;61.06
79203;BME280;68630;42.748;23.278;2024-02-04T00:40:13;95918.20;;;6.66;60.72
79203;BME280;68630;42.748;23.278;2024-02-04T00:42:42;95926.97;;;6.81;60.13
79203;BME280;68630;42.748;23.278;2024-02-04T00:45:15;95933.67;;;6.79;60.09
79203;BME280;68630;42.748;23.278;2024-02-04T00:47:48;95919.14;;;6.72;60.46
79203;BME280;68630;42.748;23.278;2024-02-04T00:50:24;95921.17;;;6.88;59.95
79203;BME280;68630;42.748;23.278;2024-02-04T00:53:04;95925.44;;;6.91;59.97
79203;BME280;68630;42.748;23.278;2024-02-04T00:55:40;95917.40;;;6.92;59.85
79203;BME280;68630;42.748;23.278;2024-02-04T00:58:26;95921.48;;;6.84;60.23
79203;BME280;68630;42.748;23.278;2024-02-04T01:01:01;95926.76;;;6.91;59.92
79203;BME280;68630;42.748;23.278;2024-02-04T01:03:32;95919.48;;;6.87;59.87
79203;BME280;68630;42.748;23.278;2024-02-04T01:06:06;95918.66;;;6.72;60.11
79203;BME280;68630;42.748;23.278;2024-02-04T01:08:39;95919.89;;;6.74;60.23
79203;BME280;68630;42.748;23.278;2024-02-04T01:11:14;95857.70;;;6.32;60.37
79203;BME280;68630;42.748;23.278;2024-02-04T01:13:44;95925.11;;;6.68;60.55
79203;BME280;68630;42.748;23.278;2024-02-04T01:16:17;95931.36;;;6.53;61.25
79203;BME280;68630;42.748;23.278;2024-02-04T01:18:50;95933.34;;;6.56;61.02
79203;BME280;68630;42.748;23.278;2024-02-04T01:21:23;95923.41;;;6.60;60.75
79203;BME280;68630;42.748;23.278;2024-02-04T01:23:57;95925.97;;;6.62;60.57
79203;BME280;68630;42.748;23.278;2024-02-04T01:26:26;95921.44;;;6.35;61.33
79203;BME280;68630;42.748;23.278;2024-02-04T01:29:05;95917.48;;;6.28;61.81
79203;BME280;68630;42.748;23.278;2024-02-04T01:31:34;95917.66;;;6.17;62.00
79203;BME280;68630;42.748;23.278;2024-02-04T01:34:06;95917.27;;;6.16;61.93
79203;BME280;68630;42.748;23.278;2024-02-04T01:36:37;95899.34;;;6.14;62.11
79203;BME280;68630;42.748;23.278;2024-02-04T01:39:07;95910.40;;;6.14;62.12
79203;BME280;68630;42.748;23.278;2024-02-04T01:41:39;95911.09;;;5.94;62.92
79203;BME280;68630;42.748;23.278;2024-02-04T01:44:13;95912.17;;;5.99;62.86
79203;BME280;68630;42.748;23.278;2024-02-04T01:46:41;95908.78;;;5.97;63.09
79203;BME280;68630;42.748;23.278;2024-02-04T01:49:16;95911.52;;;6.03;63.02
79203;BME280;68630;42.748;23.278;2024-02-04T01:52:05;95904.24;;;6.06;63.05
79203;BME280;68630;42.748;23.278;2024-02-04T01:54:37;95904.39;;;5.89;63.88
79203;BME280;68630;42.748;23.278;2024-02-04T01:57:08;95894.53;;;6.14;62.93
79203;BME280;68630;42.748;23.278;2024-02-04T01:59:43;95898.59;;;6.05;63.43
79203;BME280;68630;42.748;23.278;2024-02-04T02:02:15;95896.88;;;6.18;63.86
79203;BME280;68630;42.748;23.278;2024-02-04T02:04:47;95890.09;;;6.36;63.97
79203;BME280;68630;42.748;23.278;2024-02-04T02:07:29;95893.08;;;6.59;63.54
79203;BME280;68630;42.748;23.278;2024-02-04T02:10:03;95830.59;;;6.36;63.24
79203;BME280;68630;42.748;23.278;2024-02-04T02:12:45;95889.37;;;6.75;62.80
79203;BME280;68630;42.748;23.278;2024-02-04T02:15:16;95879.64;;;6.69;62.91
79203;BME280;68630;42.748;23.278;2024-02-04T02:24:03;95884.22;;;6.94;62.30
79203;BME280;68630;42.748;23.278;2024-02-04T02:26:43;95873.30;;;6.79;63.02
79203;BME280;68630;42.748;23.278;2024-02-04T02:29:18;95880.48;;;6.69;63.50
79203;BME280;68630;42.748;23.278;2024-02-04T02:31:54;95870.45;;;6.74;63.20
79203;BME280;68630;42.748;23.278;2024-02-04T02:34:33;95874.08;;;6.93;62.72
79203;BME280;68630;42.748;23.278;2024-02-04T02:37:33;95863.75;;;7.03;62.56
79203;BME280;68630;42.748;23.278;2024-02-04T02:43:07;95869.69;;;7.07;62.58
79203;BME280;68630;42.748;23.278;2024-02-04T02:45:42;95869.95;;;7.17;62.35
79203;BME280;68630;42.748;23.278;2024-02-04T02:48:19;95864.27;;;7.36;61.72
79203;BME280;68630;42.748;23.278;2024-02-04T02:50:55;95862.47;;;7.36;61.70
79203;BME280;68630;42.748;23.278;2024-02-04T02:53:30;95864.13;;;7.24;62.10
79203;BME280;68630;42.748;23.278;2024-02-04T02:56:01;95866.17;;;7.13;62.51
79203;BME280;68630;42.748;23.278;2024-02-04T02:58:39;95861.28;;;7.27;62.28
79203;BME280;68630;42.748;23.278;2024-02-04T03:01:06;95864.31;;;7.28;62.28
79203;BME280;68630;42.748;23.278;2024-02-04T03:03:41;95854.56;;;7.29;62.16
79203;BME280;68630;42.748;23.278;2024-02-04T03:06:20;95874.13;;;7.26;62.21
79203;BME280;68630;42.748;23.278;2024-02-04T03:08:52;95866.48;;;7.29;62.05
79203;BME280;68630;42.748;23.278;2024-02-04T03:11:21;95872.52;;;7.31;61.93
79203;BME280;68630;42.748;23.278;2024-02-04T03:13:56;95860.50;;;7.33;61.69
79203;BME280;68630;42.748;23.278;2024-02-04T03:16:30;95864.87;;;7.26;61.69
79203;BME280;68630;42.748;23.278;2024-02-04T03:19:05;95872.94;;;7.25;61.75
79203;BME280;68630;42.748;23.278;2024-02-04T03:21:53;95867.41;;;7.35;61.57
79203;BME280;68630;42.748;23.278;2024-02-04T03:24:41;95867.80;;;7.29;61.77
79203;BME280;68630;42.748;23.278;2024-02-04T05:41:51;95855.88;;;6.82;63.46
79203;BME280;68630;42.748;23.278;2024-02-04T05:44:26;95861.55;;;6.83;63.40
79203;BME280;68630;42.748;23.278;2024-02-04T05:47:01;95867.45;;;6.73;63.63
79203;BME280;68630;42.748;23.278;2024-02-04T05:49:31;95864.08;;;6.91;63.08
79203;BME280;68630;42.748;23.278;2024-02-04T05:52:08;95867.95;;;6.93;63.05
79203;BME280;68630;42.748;23.278;2024-02-04T05:54:41;95865.23;;;6.80;63.40
79203;BME280;68630;42.748;23.278;2024-02-04T05:57:14;95876.87;;;6.78;63.56
79203;BME280;68630;42.748;23.278;2024-02-04T05:59:45;95866.97;;;6.74;63.50
79203;BME280;68630;42.748;23.278;2024-02-04T06:02:22;95876.75;;;6.86;63.11
79203;BME280;68630;42.748;23.278;2024-02-04T06:04:53;95879.70;;;6.89;63.21
79203;BME280;68630;42.748;23.278;2024-02-04T06:07:27;95875.81;;;6.80;63.36
79203;BME280;68630;42.748;23.278;2024-02-04T06:09:57;95876.72;;;6.73;63.63
79203;BME280;68630;42.748;23.278;2024-02-04T06:12:34;95875.63;;;6.83;63.24
79203;BME280;68630;42.748;23.278;2024-02-04T06:15:09;95877.94;;;6.68;63.60
79203;BME280;68630;42.748;23.278;2024-02-04T06:17:44;95870.19;;;6.65;63.92
79203;BME280;68630;42.748;23.278;2024-02-04T06:20:14;95875.09;;;6.71;63.60
79203;BME280;68630;42.748;23.278;2024-02-04T06:22:45;95884.66;;;6.73;63.63
79203;BME280;68630;42.748;23.278;2024-02-04T06:25:16;95883.75;;;6.80;63.58
79203;BME280;68630;42.748;23.278;2024-02-04T06:27:46;95886.30;;;6.82;63.36
79203;BME280;68630;42.748;23.278;2024-02-04T06:30:25;95877.50;;;6.88;63.19
79203;BME280;68630;42.748;23.278;2024-02-04T06:32:56;95888.19;;;6.94;62.99
79203;BME280;68630;42.748;23.278;2024-02-04T06:35:34;95908.13;;;6.85;63.41
79203;BME280;68630;42.748;23.278;2024-02-04T06:38:06;95911.93;;;6.81;63.49
79203;BME280;68630;42.748;23.278;2024-02-04T06:40:37;95897.78;;;7.09;62.72
79203;BME280;68630;42.748;23.278;2024-02-04T06:43:14;95907.81;;;6.97;63.02
79203;BME280;68630;42.748;23.278;2024-02-04T06:45:51;95908.14;;;7.20;62.36
79203;BME280;68630;42.748;23.278;2024-02-04T06:48:28;95912.89;;;7.35;61.88
79203;BME280;68630;42.748;23.278;2024-02-04T06:51:04;95904.70;;;7.45;61.61
79203;BME280;68630;42.748;23.278;2024-02-04T06:53:35;95897.19;;;7.39;61.94
79203;BME280;68630;42.748;23.278;2024-02-04T06:56:07;95909.96;;;7.52;61.54
79203;BME280;68630;42.748;23.278;2024-02-04T06:58:46;95911.28;;;7.52;61.38
79203;BME280;68630;42.748;23.278;2024-02-04T07:01:16;95908.83;;;7.56;61.46
79203;BME280;68630;42.748;23.278;2024-02-04T07:03:54;95915.94;;;7.68;60.84
79203;BME280;68630;42.748;23.278;2024-02-04T07:06:29;95901.50;;;7.80;60.62
79203;BME280;68630;42.748;23.278;2024-02-04T07:09:03;95921.69;;;7.88;60.29
79203;BME280;68630;42.748;23.278;2024-02-04T07:11:53;95904.69;;;7.85;60.20
79203;BME280;68630;42.748;23.278;2024-02-04T07:14:34;95909.03;;;8.12;59.38
79203;BME280;68630;42.748;23.278;2024-02-04T07:17:07;95896.24;;;7.98;59.77
79203;BME280;68630;42.748;23.278;2024-02-04T07:19:46;95908.60;;;8.31;58.96
79203;BME280;68630;42.748;23.278;2024-02-04T07:22:27;95899.95;;;8.34;58.75
79203;BME280;68630;42.748;23.278;2024-02-04T07:25:16;95901.27;;;8.34;58.92
79203;BME280;68630;42.748;23.278;2024-02-04T07:27:49;95911.67;;;8.37;58.84
79203;BME280;68630;42.748;23.278;2024-02-04T07:30:43;95908.35;;;8.28;59.08
79203;BME280;68630;42.748;23.278;2024-02-04T07:33:22;95907.38;;;8.42;58.85
79203;BME280;68630;42.748;23.278;2024-02-04T07:36:18;95909.58;;;8.55;58.32
79203;BME280;68630;42.748;23.278;2024-02-04T07:42:05;95918.17;;;8.96;57.41
79203;BME280;68630;42.748;23.278;2024-02-04T07:44:37;95914.59;;;8.84;57.53
79203;BME280;68630;42.748;23.278;2024-02-04T07:47:11;95919.15;;;8.95;57.36
79203;BME280;68630;42.748;23.278;2024-02-04T07:49:40;95915.59;;;8.89;57.60
79203;BME280;68630;42.748;23.278;2024-02-04T07:52:10;95912.98;;;8.76;57.94
79203;BME280;68630;42.748;23.278;2024-02-04T07:54:49;95920.58;;;8.93;57.61
79203;BME280;68630;42.748;23.278;2024-02-04T07:57:26;95920.27;;;8.98;57.54
79203;BME280;68630;42.748;23.278;2024-02-04T08:00:00;95919.80;;;9.04;57.83
79203;BME280;68630;42.748;23.278;2024-02-04T08:02:38;95917.55;;;9.35;56.49
79203;BME280;68630;42.748;23.278;2024-02-04T08:05:13;95914.72;;;9.85;55.40
79203;BME280;68630;42.748;23.278;2024-02-04T08:07:43;95906.63;;;9.92;55.30
79203;BME280;68630;42.748;23.278;2024-02-04T08:10:19;95904.91;;;9.80;55.39
79203;BME280;68630;42.748;23.278;2024-02-04T08:12:51;95901.30;;;9.45;56.35
79203;BME280;68630;42.748;23.278;2024-02-04T08:15:23;95915.18;;;9.43;56.56
79203;BME280;68630;42.748;23.278;2024-02-04T08:18:13;95895.16;;;9.86;56.08
79203;BME280;68630;42.748;23.278;2024-02-04T08:20:44;95904.12;;;11.20;52.78
79203;BME280;68630;42.748;23.278;2024-02-04T08:23:16;95906.13;;;12.25;49.73
79203;BME280;68630;42.748;23.278;2024-02-04T08:25:50;95885.31;;;12.50;49.23
79203;BME280;68630;42.748;23.278;2024-02-04T08:31:31;95892.20;;;11.68;51.68
79203;BME280;68630;42.748;23.278;2024-02-04T08:34:03;95806.38;;;11.48;50.51
79203;BME280;68630;42.748;23.278;2024-02-04T08:36:36;95891.25;;;11.90;50.71
79203;BME280;68630;42.748;23.278;2024-02-04T08:39:09;95856.32;;;11.72;50.69
79203;BME280;68630;42.748;23.278;2024-02-04T08:41:47;95911.27;;;12.17;50.29
79203;BME280;68630;42.748;23.278;2024-02-04T08:44:23;95920.91;;;12.45;49.36
79203;BME280;68630;42.748;23.278;2024-02-04T08:46:53;95919.39;;;13.58;47.56
79203;BME280;68630;42.748;23.278;2024-02-04T08:49:24;95923.07;;;15.70;42.37
79203;BME280;68630;42.748;23.278;2024-02-04T08:52:00;95921.59;;;15.89;41.44
79203;BME280;68630;42.748;23.278;2024-02-04T08:54:33;95917.44;;;14.76;43.11
79203;BME280;68630;42.748;23.278;2024-02-04T08:57:04;95930.80;;;13.90;45.56
79203;BME280;68630;42.748;23.278;2024-02-04T08:59:33;95935.73;;;12.43;48.66
79203;BME280;68630;42.748;23.278;2024-02-04T09:02:03;95935.34;;;11.73;50.69
79203;BME280;68630;42.748;23.278;2024-02-04T09:04:35;95930.91;;;11.13;52.15
79203;BME280;68630;42.748;23.278;2024-02-04T09:07:19;95934.10;;;10.62;54.24
79203;BME280;68630;42.748;23.278;2024-02-04T09:13:15;95938.70;;;10.02;55.81
79203;BME280;68630;42.748;23.278;2024-02-04T09:15:40;95943.68;;;10.01;56.02
79203;BME280;68630;42.748;23.278;2024-02-04T09:18:12;95952.19;;;9.52;57.62
79203;BME280;68630;42.748;23.278;2024-02-04T09:24:07;95947.22;;;9.77;56.97
79203;BME280;68630;42.748;23.278;2024-02-04T09:26:34;95955.64;;;9.71;56.88
79203;BME280;68630;42.748;23.278;2024-02-04T09:29:05;95959.03;;;9.73;56.86
79203;BME280;68630;42.748;23.278;2024-02-04T09:31:34;95957.95;;;9.70;57.10
79203;BME280;68630;42.748;23.278;2024-02-04T09:34:04;95948.59;;;9.59;57.63
79203;BME280;68630;42.748;23.278;2024-02-04T09:36:36;95957.03;;;9.82;57.14
79203;BME280;68630;42.748;23.278;2024-02-04T09:39:11;95962.14;;;9.91;56.95
79203;BME280;68630;42.748;23.278;2024-02-04T09:41:40;95945.78;;;10.31;56.15
79203;BME280;68630;42.748;23.278;2024-02-04T09:44:12;95956.97;;;10.59;55.45
79203;BME280;68630;42.748;23.278;2024-02-04T09:46:43;95956.98;;;10.76;55.14
79203;BME280;68630;42.748;23.278;2024-02-04T09:49:14;95950.08;;;10.79;54.94
79203;BME280;68630;42.748;23.278;2024-02-04T09:51:45;95950.32;;;10.47;55.84
79203;BME280;68630;42.748;23.278;2024-02-04T09:54:18;95946.44;;;10.74;55.02
79203;BME280;68630;42.748;23.278;2024-02-04T09:59:24;95944.45;;;10.20;57.23
79203;BME280;68630;42.748;23.278;2024-02-04T10:02:06;95935.86;;;10.27;57.21
79203;BME280;68630;42.748;23.278;2024-02-04T10:04:44;95936.38;;;10.33;57.00
79203;BME280;68630;42.748;23.278;2024-02-04T10:07:28;95933.25;;;10.44;56.83
79203;BME280;68630;42.748;23.278;2024-02-04T10:10:04;95939.18;;;10.48;56.71
79203;BME280;68630;42.748;23.278;2024-02-04T10:15:52;95925.99;;;10.41;56.97
79203;BME280;68630;42.748;23.278;2024-02-04T10:18:42;95936.64;;;10.46;57.08
79203;BME280;68630;42.748;23.278;2024-02-04T10:21:29;95929.15;;;10.40;57.24
79203;BME280;68630;42.748;23.278;2024-02-04T10:24:08;95926.25;;;10.49;57.25
79203;BME280;68630;42.748;23.278;2024-02-04T10:26:44;95928.05;;;10.43;57.23
79203;BME280;68630;42.748;23.278;2024-02-04T10:29:15;95927.61;;;10.19;57.61
79203;BME280;68630;42.748;23.278;2024-02-04T10:31:52;95908.76;;;10.22;57.57
79203;BME280;68630;42.748;23.278;2024-02-04T10:37:22;95903.44;;;10.22;57.81
79203;BME280;68630;42.748;23.278;2024-02-04T10:39:51;95906.67;;;10.09;58.49
79203;BME280;68630;42.748;23.278;2024-02-04T10:42:32;95906.09;;;10.22;57.86
79203;BME280;68630;42.748;23.278;2024-02-04T10:45:11;95915.17;;;10.25;57.72
79203;BME280;68630;42.748;23.278;2024-02-04T10:47:43;95919.89;;;10.16;57.90
79203;BME280;68630;42.748;23.278;2024-02-04T10:50:12;95917.41;;;10.32;57.76
79203;BME280;68630;42.748;23.278;2024-02-04T10:52:44;95921.63;;;10.40;57.34
79203;BME280;68630;42.748;23.278;2024-02-04T10:55:19;95923.05;;;10.21;57.53
79203;BME280;68630;42.748;23.278;2024-02-04T10:57:51;95922.90;;;10.11;57.58
79203;BME280;68630;42.748;23.278;2024-02-04T11:00:26;95920.12;;;10.13;57.94
79203;BME280;68630;42.748;23.278;2024-02-04T11:03:02;95912.98;;;10.08;57.88
79203;BME280;68630;42.748;23.278;2024-02-04T11:05:36;95911.50;;;9.98;58.18
79203;BME280;68630;42.748;23.278;2024-02-04T11:08:09;95915.52;;;10.09;57.88
79203;BME280;68630;42.748;23.278;2024-02-04T11:10:42;95918.30;;;10.08;57.96
79203;BME280;68630;42.748;23.278;2024-02-04T11:13:33;95919.36;;;10.00;58.06
79203;BME280;68630;42.748;23.278;2024-02-04T11:16:16;95912.98;;;10.08;57.86
79203;BME280;68630;42.748;23.278;2024-02-04T11:27:41;95914.14;;;10.34;57.46
79203;BME280;68630;42.748;23.278;2024-02-04T11:30:19;95908.52;;;10.25;57.63
79203;BME280;68630;42.748;23.278;2024-02-04T11:32:52;95898.66;;;10.56;56.94
79203;BME280;68630;42.748;23.278;2024-02-04T11:35:24;95881.47;;;10.60;56.58
79203;BME280;68630;42.748;23.278;2024-02-04T11:38:05;95888.38;;;10.51;56.44
79203;BME280;68630;42.748;23.278;2024-02-04T11:40:39;95883.78;;;10.47;56.48
79203;BME280;68630;42.748;23.278;2024-02-04T11:43:22;95886.78;;;10.48;56.65
79203;BME280;68630;42.748;23.278;2024-02-04T11:45:52;95891.98;;;10.50;56.25
79203;BME280;68630;42.748;23.278;2024-02-04T11:48:55;95884.73;;;10.46;55.92
79203;BME280;68630;42.748;23.278;2024-02-04T11:51:04;95872.77;;;10.58;55.81
79203;BME280;68630;42.748;23.278;2024-02-04T11:53:39;95868.64;;;10.76;55.58
79203;BME280;68630;42.748;23.278;2024-02-04T11:56:08;95860.48;;;10.89;55.04
79203;BME280;68630;42.748;23.278;2024-02-04T11:58:42;95856.67;;;11.09;54.29
79203;BME280;68630;42.748;23.278;2024-02-04T12:01:15;95840.76;;;11.24;54.03
79203;BME280;68630;42.748;23.278;2024-02-04T12:03:43;95835.23;;;11.42;53.83
79203;BME280;68630;42.748;23.278;2024-02-04T12:06:13;95838.73;;;11.49;53.87
79203;BME280;68630;42.748;23.278;2024-02-04T12:08:48;95824.23;;;11.62;53.07
79203;BME280;68630;42.748;23.278;2024-02-04T12:11:21;95841.11;;;11.78;52.33
79203;BME280;68630;42.748;23.278;2024-02-04T12:14:00;95835.45;;;11.51;52.65
79203;BME280;68630;42.748;23.278;2024-02-04T12:16:32;95835.08;;;11.50;52.90
79203;BME280;68630;42.748;23.278;2024-02-04T12:19:03;95826.91;;;11.36;52.88
79203;BME280;68630;42.748;23.278;2024-02-04T12:21:36;95834.00;;;11.20;53.70
79203;BME280;68630;42.748;23.278;2024-02-04T12:24:17;95826.53;;;11.40;53.04
79203;BME280;68630;42.748;23.278;2024-02-04T12:26:54;95825.73;;;11.29;53.54
79203;BME280;68630;42.748;23.278;2024-02-04T12:29:27;95817.11;;;11.36;53.38
79203;BME280;68630;42.748;23.278;2024-02-04T12:31:59;95820.11;;;11.37;53.80
79203;BME280;68630;42.748;23.278;2024-02-04T12:34:28;95806.28;;;11.65;53.25
79203;BME280;68630;42.748;23.278;2024-02-04T12:37:00;95808.36;;;11.82;52.65
79203;BME280;68630;42.748;23.278;2024-02-04T12:39:34;95799.48;;;11.93;52.10
79203;BME280;68630;42.748;23.278;2024-02-04T12:41:59;95803.06;;;11.97;52.42
79203;BME280;68630;42.748;23.278;2024-02-04T12:44:27;95805.14;;;12.15;51.86
79203;BME280;68630;42.748;23.278;2024-02-04T12:47:00;95805.98;;;12.31;50.86
79203;BME280;68630;42.748;23.278;2024-02-04T12:49:25;95806.06;;;12.20;51.28
79203;BME280;68630;42.748;23.278;2024-02-04T12:52:03;95813.17;;;12.09;51.91
79203;BME280;68630;42.748;23.278;2024-02-04T12:54:26;95800.27;;;11.99;51.91
79203;BME280;68630;42.748;23.278;2024-02-04T12:56:56;95814.64;;;11.87;53.26
79203;BME280;68630;42.748;23.278;2024-02-04T12:59:29;95816.02;;;12.02;52.34
79203;BME280;68630;42.748;23.278;2024-02-04T13:02:00;95817.67;;;11.88;52.02
79203;BME280;68630;42.748;23.278;2024-02-04T13:04:39;95812.82;;;11.93;52.27
79203;BME280;68630;42.748;23.278;2024-02-04T13:10:09;95819.69;;;11.74;52.41
79203;BME280;68630;42.748;23.278;2024-02-04T13:16:28;95818.70;;;11.75;52.79
79203;BME280;68630;42.748;23.278;2024-02-04T13:19:03;95810.70;;;11.75;52.49
79203;BME280;68630;42.748;23.278;2024-02-04T13:24:31;95824.41;;;11.76;52.46
79203;BME280;68630;42.748;23.278;2024-02-04T13:33:16;95819.72;;;11.90;52.21
79203;BME280;68630;42.748;23.278;2024-02-04T13:36:01;95823.95;;;11.98;52.00
79203;BME280;68630;42.748;23.278;2024-02-04T13:38:57;95821.61;;;11.99;52.14
79203;BME280;68630;42.748;23.278;2024-02-04T13:42:01;95829.28;;;11.98;52.01
79203;BME280;68630;42.748;23.278;2024-02-04T13:44:39;95826.39;;;12.11;51.32
79203;BME280;68630;42.748;23.278;2024-02-04T13:47:25;95836.78;;;11.98;51.93
79203;BME280;68630;42.748;23.278;2024-02-04T13:49:59;95830.89;;;12.10;51.06
79203;BME280;68630;42.748;23.278;2024-02-04T13:55:21;95847.08;;;12.03;51.21
79203;BME280;68630;42.748;23.278;2024-02-04T13:57:54;95845.18;;;12.15;51.17
79203;BME280;68630;42.748;23.278;2024-02-04T14:00:34;95846.28;;;12.28;51.35
79203;BME280;68630;42.748;23.278;2024-02-04T14:06:04;95845.76;;;12.18;51.25
79203;BME280;68630;42.748;23.278;2024-02-04T14:08:44;95831.73;;;12.42;50.95
79203;BME280;68630;42.748;23.278;2024-02-04T14:11:18;95845.76;;;12.49;50.60
79203;BME280;68630;42.748;23.278;2024-02-04T14:13:51;95834.71;;;12.17;51.00
79203;BME280;68630;42.748;23.278;2024-02-04T14:16:27;95843.28;;;12.06;51.50
79203;BME280;68630;42.748;23.278;2024-02-04T14:18:57;95849.50;;;12.01;51.63
79203;BME280;68630;42.748;23.278;2024-02-04T14:21:32;95842.13;;;11.98;51.70
79203;BME280;68630;42.748;23.278;2024-02-04T14:24:12;95842.70;;;11.75;52.49
79203;BME280;68630;42.748;23.278;2024-02-04T14:26:55;95836.97;;;11.91;52.04
79203;BME280;68630;42.748;23.278;2024-02-04T14:29:24;95836.81;;;11.87;51.89
79203;BME280;68630;42.748;23.278;2024-02-04T14:31:57;95840.57;;;11.69;52.56
79203;BME280;68630;42.748;23.278;2024-02-04T14:34:50;95846.24;;;11.70;52.84
79203;BME280;68630;42.748;23.278;2024-02-04T14:37:21;95853.23;;;11.83;52.40
79203;BME280;68630;42.748;23.278;2024-02-04T14:39:54;95847.91;;;11.77;52.66
79203;BME280;68630;42.748;23.278;2024-02-04T14:42:24;95847.23;;;11.69;52.60
79203;BME280;68630;42.748;23.278;2024-02-04T14:44:55;95850.87;;;11.68;52.51
79203;BME280;68630;42.748;23.278;2024-02-04T14:47:30;95850.11;;;11.51;53.41
79203;BME280;68630;42.748;23.278;2024-02-04T14:50:00;95861.33;;;11.60;53.26
79203;BME280;68630;42.748;23.278;2024-02-04T14:52:33;95848.41;;;11.55;53.45
79203;BME280;68630;42.748;23.278;2024-02-04T14:55:05;95846.61;;;11.50;53.50
79203;BME280;68630;42.748;23.278;2024-02-04T14:57:40;95846.08;;;11.56;53.36
79203;BME280;68630;42.748;23.278;2024-02-04T15:00:08;95840.81;;;11.45;53.67
79203;BME280;68630;42.748;23.278;2024-02-04T15:02:43;95840.69;;;11.47;53.72
79203;BME280;68630;42.748;23.278;2024-02-04T15:05:28;95851.17;;;11.27;54.08
79203;BME280;68630;42.748;23.278;2024-02-04T15:08:16;95849.44;;;11.37;53.79
79203;BME280;68630;42.748;23.278;2024-02-04T15:10:52;95848.91;;;11.22;54.39
79203;BME280;68630;42.748;23.278;2024-02-04T15:13:32;95848.46;;;11.06;54.56
79203;BME280;68630;42.748;23.278;2024-02-04T15:16:09;95848.19;;;11.15;54.53
79203;BME280;68630;42.748;23.278;2024-02-04T15:18:53;95848.73;;;10.97;54.74
79203;BME280;68630;42.748;23.278;2024-02-04T15:21:25;95849.52;;;10.71;55.65
79203;BME280;68630;42.748;23.278;2024-02-04T15:24:01;95856.06;;;10.61;55.92
79203;BME280;68630;42.748;23.278;2024-02-04T15:26:43;95852.06;;;10.61;56.10
79203;BME280;68630;42.748;23.278;2024-02-04T15:29:12;95851.83;;;10.53;56.36
79203;BME280;68630;42.748;23.278;2024-02-04T15:31:49;95849.19;;;10.42;56.81
79203;BME280;68630;42.748;23.278;2024-02-04T15:34:25;95847.80;;;10.19;57.30
79203;BME280;68630;42.748;23.278;2024-02-04T15:36:58;95856.27;;;10.24;57.30
79203;BME280;68630;42.748;23.278;2024-02-04T15:39:39;95857.34;;;10.10;57.79
79203;BME280;68630;42.748;23.278;2024-02-04T15:42:14;95860.84;;;10.00;58.13
79203;BME280;68630;42.748;23.278;2024-02-04T15:44:50;95784.25;;;9.41;58.26
79203;BME280;68630;42.748;23.278;2024-02-04T15:47:23;95859.03;;;9.94;58.31
79203;BME280;68630;42.748;23.278;2024-02-04T15:49:55;95858.27;;;9.81;58.75
79203;BME280;68630;42.748;23.278;2024-02-04T15:52:38;95865.91;;;9.91;58.42
79203;BME280;68630;42.748;23.278;2024-02-04T15:55:09;95867.58;;;9.81;58.70
79203;BME280;68630;42.748;23.278;2024-02-04T15:57:44;95871.67;;;9.74;58.98
79203;BME280;68630;42.748;23.278;2024-02-04T16:00:21;95858.00;;;9.73;59.10
79203;BME280;68630;42.748;23.278;2024-02-04T16:02:58;95863.20;;;9.69;59.00
79203;BME280;68630;42.748;23.278;2024-02-04T16:05:27;95855.90;;;9.54;59.48
79203;BME280;68630;42.748;23.278;2024-02-04T16:08:02;95849.13;;;9.44;59.75
79203;BME280;68630;42.748;23.278;2024-02-04T16:10:41;95853.08;;;9.09;60.90
79203;BME280;68630;42.748;23.278;2024-02-04T16:13:17;95842.38;;;8.97;61.16
79203;BME280;68630;42.748;23.278;2024-02-04T16:15:50;95843.27;;;9.04;61.01
79203;BME280;68630;42.748;23.278;2024-02-04T16:18:28;95845.64;;;8.95;61.22
79203;BME280;68630;42.748;23.278;2024-02-04T16:21:11;95849.03;;;8.79;61.74
79203;BME280;68630;42.748;23.278;2024-02-04T16:23:43;95848.73;;;8.89;61.47
79203;BME280;68630;42.748;23.278;2024-02-04T16:26:20;95864.17;;;8.66;62.22
79203;BME280;68630;42.748;23.278;2024-02-04T16:28:52;95867.75;;;8.77;61.78
79203;BME280;68630;42.748;23.278;2024-02-04T16:36:33;95871.46;;;8.75;61.92
79203;BME280;68630;42.748;23.278;2024-02-04T16:39:11;95879.91;;;8.74;61.89
79203;BME280;68630;42.748;23.278;2024-02-04T16:41:46;95885.25;;;8.80;61.88
79203;BME280;68630;42.748;23.278;2024-02-04T16:44:20;95890.16;;;8.92;61.56
79203;BME280;68630;42.748;23.278;2024-02-04T16:46:50;95882.22;;;8.97;61.33
79203;BME280;68630;42.748;23.278;2024-02-04T16:49:24;95897.31;;;8.97;61.33
79203;BME280;68630;42.748;23.278;2024-02-04T16:52:02;95899.47;;;8.97;61.27
79203;BME280;68630;42.748;23.278;2024-02-04T16:54:35;95901.17;;;9.17;60.70
79203;BME280;68630;42.748;23.278;2024-02-04T16:57:18;95904.80;;;9.22;60.62